sensor_id;sensor_type;location;lat;lon;timestamp;pressure;altitude;pressure_sealevel;temperature;humidity
72896;BME280;61036;53.224;6.554;2023-07-20T00:00:52;101379.63;;;22.25;100.00
72896;BME280;61036;53.224;6.554;2023-07-20T00:03:20;101379.84;;;22.47;100.00
72896;BME280;61036;53.224;6.554;2023-07-20T00:05:49;101371.88;;;22.29;100.00
72896;BME280;61036;53.224;6.554;2023-07-20T00:08:16;101383.53;;;20.93;100.00
72896;BME280;61036;53.224;6.554;2023-07-20T00:10:42;101380.66;;;21.52;100.00
72896;BME280;61036;53.224;6.554;2023-07-20T00:13:07;101377.84;;;21.85;100.00
72896;BME280;61036;53.224;6.554;2023-07-20T00:15:33;101383.22;;;22.26;100.00
72896;BME280;61036;53.224;6.554;2023-07-20T00:17:59;101391.28;;;20.98;100.00
72896;BME280;61036;53.224;6.554;2023-07-20T00:20:25;101381.13;;;21.80;100.00
72896;BME280;61036;53.224;6.554;2023-07-20T00:22:51;101388.78;;;21.93;100.00
72896;BME280;61036;53.224;6.554;2023-07-20T00:25:18;101383.63;;;22.06;100.00
72896;BME280;61036;53.224;6.554;2023-07-20T00:27:43;101396.25;;;21.60;100.00
72896;BME280;61036;53.224;6.554;2023-07-20T00:30:10;101392.84;;;21.58;100.00
72896;BME280;61036;53.224;6.554;2023-07-20T00:32:35;101395.25;;;21.61;100.00
72896;BME280;61036;53.224;6.554;2023-07-20T00:35:01;101380.97;;;21.33;100.00
72896;BME280;61036;53.224;6.554;2023-07-20T00:37:28;101379.91;;;21.83;100.00
72896;BME280;61036;53.224;6.554;2023-07-20T00:39:54;101391.81;;;21.51;100.00
72896;BME280;61036;53.224;6.554;2023-07-20T00:42:20;101390.38;;;21.87;100.00
72896;BME280;61036;53.224;6.554;2023-07-20T00:44:46;101389.19;;;21.74;100.00
72896;BME280;61036;53.224;6.554;2023-07-20T00:47:11;101385.41;;;21.75;100.00
72896;BME280;61036;53.224;6.554;2023-07-20T00:49:37;101387.69;;;21.38;100.00
72896;BME280;61036;53.224;6.554;2023-07-20T00:52:05;101388.56;;;21.55;100.00
72896;BME280;61036;53.224;6.554;2023-07-20T00:54:32;101389.91;;;21.10;100.00
72896;BME280;61036;53.224;6.554;2023-07-20T00:56:58;101388.88;;;21.03;100.00
72896;BME280;61036;53.224;6.554;2023-07-20T00:59:26;101390.59;;;21.45;100.00
72896;BME280;61036;53.224;6.554;2023-07-20T01:01:52;101381.38;;;21.54;100.00
72896;BME280;61036;53.224;6.554;2023-07-20T01:04:18;101382.19;;;21.63;100.00
72896;BME280;61036;53.224;6.554;2023-07-20T01:07:11;101381.09;;;21.88;100.00
72896;BME280;61036;53.224;6.554;2023-07-20T01:09:48;101382.16;;;21.87;100.00
72896;BME280;61036;53.224;6.554;2023-07-20T01:12:40;101385.19;;;21.92;100.00
72896;BME280;61036;53.224;6.554;2023-07-20T01:15:06;101383.75;;;21.57;100.00
72896;BME280;61036;53.224;6.554;2023-07-20T01:17:34;101383.06;;;21.63;100.00
72896;BME280;61036;53.224;6.554;2023-07-20T01:19:59;101391.50;;;21.45;100.00
72896;BME280;61036;53.224;6.554;2023-07-20T01:25:45;101383.72;;;21.82;100.00
72896;BME280;61036;53.224;6.554;2023-07-20T01:33:40;101380.63;;;21.68;100.00
72896;BME280;61036;53.224;6.554;2023-07-20T01:36:07;101382.53;;;21.60;100.00
72896;BME280;61036;53.224;6.554;2023-07-20T01:38:34;101379.13;;;21.50;100.00
72896;BME280;61036;53.224;6.554;2023-07-20T01:40:59;101379.13;;;21.33;100.00
72896;BME280;61036;53.224;6.554;2023-07-20T01:43:25;101382.19;;;21.14;100.00
72896;BME280;61036;53.224;6.554;2023-07-20T01:45:50;101381.00;;;21.24;100.00
72896;BME280;61036;53.224;6.554;2023-07-20T01:48:16;101387.00;;;21.28;100.00
72896;BME280;61036;53.224;6.554;2023-07-20T01:50:42;101386.50;;;21.00;100.00
72896;BME280;61036;53.224;6.554;2023-07-20T01:53:08;101377.91;;;20.95;100.00
72896;BME280;61036;53.224;6.554;2023-07-20T01:55:33;101380.97;;;20.84;100.00
72896;BME280;61036;53.224;6.554;2023-07-20T01:57:59;101382.31;;;20.71;100.00
72896;BME280;61036;53.224;6.554;2023-07-20T02:00:26;101377.72;;;20.80;100.00
72896;BME280;61036;53.224;6.554;2023-07-20T02:02:52;101380.97;;;20.84;100.00
72896;BME280;61036;53.224;6.554;2023-07-20T02:05:17;101384.06;;;20.89;100.00
72896;BME280;61036;53.224;6.554;2023-07-20T02:07:45;101392.44;;;20.79;100.00
72896;BME280;61036;53.224;6.554;2023-07-20T02:10:15;101389.16;;;20.75;100.00
72896;BME280;61036;53.224;6.554;2023-07-20T02:12:41;101385.41;;;20.85;100.00
72896;BME280;61036;53.224;6.554;2023-07-20T02:15:07;101377.56;;;21.06;100.00
72896;BME280;61036;53.224;6.554;2023-07-20T02:17:34;101382.34;;;20.96;100.00
72896;BME280;61036;53.224;6.554;2023-07-20T02:20:00;101385.78;;;20.90;100.00
72896;BME280;61036;53.224;6.554;2023-07-20T02:22:25;101386.81;;;20.97;100.00
72896;BME280;61036;53.224;6.554;2023-07-20T02:24:51;101388.16;;;20.93;100.00
72896;BME280;61036;53.224;6.554;2023-07-20T02:27:16;101386.97;;;20.95;100.00
72896;BME280;61036;53.224;6.554;2023-07-20T02:29:42;101389.38;;;20.90;100.00
72896;BME280;61036;53.224;6.554;2023-07-20T02:32:10;101389.72;;;20.79;100.00
72896;BME280;61036;53.224;6.554;2023-07-20T02:34:36;101399.97;;;20.77;100.00
72896;BME280;61036;53.224;6.554;2023-07-20T02:37:02;101385.41;;;20.68;100.00
72896;BME280;61036;53.224;6.554;2023-07-20T02:39:28;101391.22;;;20.82;100.00
72896;BME280;61036;53.224;6.554;2023-07-20T02:41:54;101385.91;;;20.72;100.00
72896;BME280;61036;53.224;6.554;2023-07-20T02:44:20;101394.34;;;20.36;100.00
72896;BME280;61036;53.224;6.554;2023-07-20T02:46:46;101392.59;;;20.27;100.00
72896;BME280;61036;53.224;6.554;2023-07-20T02:49:11;101393.78;;;20.59;100.00
72896;BME280;61036;53.224;6.554;2023-07-20T02:51:37;101396.31;;;20.60;100.00
72896;BME280;61036;53.224;6.554;2023-07-20T02:54:02;101393.66;;;20.34;100.00
72896;BME280;61036;53.224;6.554;2023-07-20T02:56:29;101391.13;;;20.41;100.00
72896;BME280;61036;53.224;6.554;2023-07-20T02:58:54;101395.75;;;20.40;100.00
72896;BME280;61036;53.224;6.554;2023-07-20T03:01:20;101396.16;;;20.19;100.00
72896;BME280;61036;53.224;6.554;2023-07-20T03:03:45;101394.69;;;20.41;100.00
72896;BME280;61036;53.224;6.554;2023-07-20T03:06:15;101392.91;;;20.66;100.00
72896;BME280;61036;53.224;6.554;2023-07-20T03:08:42;101397.28;;;20.51;100.00
72896;BME280;61036;53.224;6.554;2023-07-20T03:11:10;101387.56;;;19.80;100.00
72896;BME280;61036;53.224;6.554;2023-07-20T03:13:36;101398.63;;;19.52;100.00
72896;BME280;61036;53.224;6.554;2023-07-20T03:16:02;101400.97;;;19.21;100.00
72896;BME280;61036;53.224;6.554;2023-07-20T03:18:28;101398.25;;;19.65;100.00
72896;BME280;61036;53.224;6.554;2023-07-20T03:20:54;101402.13;;;19.80;100.00
72896;BME280;61036;53.224;6.554;2023-07-20T03:23:19;101399.59;;;19.87;100.00
72896;BME280;61036;53.224;6.554;2023-07-20T03:25:45;101395.47;;;19.83;100.00
72896;BME280;61036;53.224;6.554;2023-07-20T03:28:10;101404.69;;;19.82;100.00
72896;BME280;61036;53.224;6.554;2023-07-20T03:30:36;101402.75;;;19.74;100.00
72896;BME280;61036;53.224;6.554;2023-07-20T03:33:02;101403.69;;;19.91;100.00
72896;BME280;61036;53.224;6.554;2023-07-20T03:35:29;101400.44;;;19.87;100.00
72896;BME280;61036;53.224;6.554;2023-07-20T03:37:56;101397.50;;;19.81;100.00
72896;BME280;61036;53.224;6.554;2023-07-20T03:40:22;101407.63;;;19.88;100.00
72896;BME280;61036;53.224;6.554;2023-07-20T03:42:48;101401.22;;;19.72;100.00
72896;BME280;61036;53.224;6.554;2023-07-20T03:45:13;101409.22;;;19.47;100.00
72896;BME280;61036;53.224;6.554;2023-07-20T03:47:40;101404.59;;;19.48;100.00
72896;BME280;61036;53.224;6.554;2023-07-20T03:50:06;101404.16;;;19.78;100.00
72896;BME280;61036;53.224;6.554;2023-07-20T03:52:32;101402.44;;;19.77;100.00
72896;BME280;61036;53.224;6.554;2023-07-20T03:54:57;101397.63;;;19.79;100.00
72896;BME280;61036;53.224;6.554;2023-07-20T03:57:23;101395.63;;;19.81;100.00
72896;BME280;61036;53.224;6.554;2023-07-20T03:59:48;101402.31;;;19.87;100.00
72896;BME280;61036;53.224;6.554;2023-07-20T04:02:14;101399.41;;;19.62;100.00
72896;BME280;61036;53.224;6.554;2023-07-20T04:04:41;101406.09;;;19.42;100.00
72896;BME280;61036;53.224;6.554;2023-07-20T04:07:07;101408.44;;;19.81;100.00
72896;BME280;61036;53.224;6.554;2023-07-20T04:09:32;101407.84;;;19.69;100.00
72896;BME280;61036;53.224;6.554;2023-07-20T04:11:58;101406.19;;;19.76;100.00
72896;BME280;61036;53.224;6.554;2023-07-20T04:14:24;101409.03;;;19.93;100.00
72896;BME280;61036;53.224;6.554;2023-07-20T04:16:49;101415.75;;;19.98;100.00
72896;BME280;61036;53.224;6.554;2023-07-20T04:19:17;101412.69;;;20.09;100.00
72896;BME280;61036;53.224;6.554;2023-07-20T04:21:43;101406.53;;;20.07;100.00
72896;BME280;61036;53.224;6.554;2023-07-20T04:24:08;101414.56;;;20.01;100.00
72896;BME280;61036;53.224;6.554;2023-07-20T04:26:34;101421.94;;;19.82;100.00
72896;BME280;61036;53.224;6.554;2023-07-20T04:29:01;101431.47;;;19.96;100.00
72896;BME280;61036;53.224;6.554;2023-07-20T04:31:33;101427.22;;;19.76;100.00
72896;BME280;61036;53.224;6.554;2023-07-20T04:33:59;101420.88;;;19.75;100.00
72896;BME280;61036;53.224;6.554;2023-07-20T04:36:25;101427.63;;;19.63;100.00
72896;BME280;61036;53.224;6.554;2023-07-20T04:38:52;101436.16;;;19.42;100.00
72896;BME280;61036;53.224;6.554;2023-07-20T04:41:19;101429.22;;;19.92;100.00
72896;BME280;61036;53.224;6.554;2023-07-20T04:43:47;101428.66;;;19.62;100.00
72896;BME280;61036;53.224;6.554;2023-07-20T04:46:17;101429.63;;;20.05;100.00
72896;BME280;61036;53.224;6.554;2023-07-20T04:48:44;101428.91;;;20.03;100.00
72896;BME280;61036;53.224;6.554;2023-07-20T04:51:10;101430.34;;;20.07;100.00
72896;BME280;61036;53.224;6.554;2023-07-20T04:53:36;101439.56;;;20.40;100.00
72896;BME280;61036;53.224;6.554;2023-07-20T04:56:02;101444.66;;;20.61;100.00
72896;BME280;61036;53.224;6.554;2023-07-20T04:58:28;101443.72;;;21.03;100.00
72896;BME280;61036;53.224;6.554;2023-07-20T05:00:54;101446.09;;;22.21;100.00
72896;BME280;61036;53.224;6.554;2023-07-20T05:03:21;101438.34;;;22.32;100.00
72896;BME280;61036;53.224;6.554;2023-07-20T05:05:49;101435.16;;;22.52;100.00
72896;BME280;61036;53.224;6.554;2023-07-20T05:08:15;101449.59;;;22.54;100.00
72896;BME280;61036;53.224;6.554;2023-07-20T05:10:41;101442.34;;;21.97;100.00
72896;BME280;61036;53.224;6.554;2023-07-20T05:13:07;101441.47;;;22.21;100.00
72896;BME280;61036;53.224;6.554;2023-07-20T05:15:33;101444.34;;;22.36;100.00
72896;BME280;61036;53.224;6.554;2023-07-20T05:18:00;101437.22;;;21.86;100.00
72896;BME280;61036;53.224;6.554;2023-07-20T05:20:26;101445.75;;;22.15;100.00
72896;BME280;61036;53.224;6.554;2023-07-20T05:22:53;101446.72;;;22.39;100.00
72896;BME280;61036;53.224;6.554;2023-07-20T05:25:19;101447.97;;;22.68;100.00
72896;BME280;61036;53.224;6.554;2023-07-20T05:27:44;101445.16;;;22.76;100.00
72896;BME280;61036;53.224;6.554;2023-07-20T05:30:11;101445.16;;;23.76;100.00
72896;BME280;61036;53.224;6.554;2023-07-20T05:32:36;101441.31;;;23.39;100.00
72896;BME280;61036;53.224;6.554;2023-07-20T05:35:02;101446.66;;;23.18;100.00
72896;BME280;61036;53.224;6.554;2023-07-20T05:37:28;101445.94;;;22.93;100.00
72896;BME280;61036;53.224;6.554;2023-07-20T05:39:53;101436.72;;;23.78;100.00
72896;BME280;61036;53.224;6.554;2023-07-20T05:42:19;101441.91;;;23.35;100.00
72896;BME280;61036;53.224;6.554;2023-07-20T05:44:44;101435.66;;;22.87;100.00
72896;BME280;61036;53.224;6.554;2023-07-20T05:47:10;101441.66;;;22.90;100.00
72896;BME280;61036;53.224;6.554;2023-07-20T05:49:35;101437.53;;;22.86;100.00
72896;BME280;61036;53.224;6.554;2023-07-20T05:52:01;101445.25;;;22.99;100.00
72896;BME280;61036;53.224;6.554;2023-07-20T05:54:27;101433.19;;;22.69;100.00
72896;BME280;61036;53.224;6.554;2023-07-20T05:56:52;101439.63;;;23.15;100.00
72896;BME280;61036;53.224;6.554;2023-07-20T05:59:19;101437.81;;;23.08;100.00
72896;BME280;61036;53.224;6.554;2023-07-20T06:01:49;101446.47;;;22.96;100.00
72896;BME280;61036;53.224;6.554;2023-07-20T06:04:15;101439.97;;;22.50;100.00
72896;BME280;61036;53.224;6.554;2023-07-20T06:06:41;101443.25;;;22.45;100.00
72896;BME280;61036;53.224;6.554;2023-07-20T06:09:06;101443.22;;;21.89;100.00
72896;BME280;61036;53.224;6.554;2023-07-20T06:11:38;101434.56;;;24.47;100.00
72896;BME280;61036;53.224;6.554;2023-07-20T06:14:03;101431.31;;;24.73;99.40
72896;BME280;61036;53.224;6.554;2023-07-20T06:16:29;101441.88;;;23.95;100.00
72896;BME280;61036;53.224;6.554;2023-07-20T06:18:55;101434.97;;;26.16;95.12
72896;BME280;61036;53.224;6.554;2023-07-20T06:21:20;101438.13;;;24.77;97.85
72896;BME280;61036;53.224;6.554;2023-07-20T06:23:46;101446.03;;;25.17;96.27
72896;BME280;61036;53.224;6.554;2023-07-20T06:26:11;101447.28;;;24.99;98.56
72896;BME280;61036;53.224;6.554;2023-07-20T06:28:37;101449.72;;;23.23;100.00
72896;BME280;61036;53.224;6.554;2023-07-20T06:31:03;101444.38;;;23.44;100.00
72896;BME280;61036;53.224;6.554;2023-07-20T06:33:29;101450.03;;;24.04;100.00
72896;BME280;61036;53.224;6.554;2023-07-20T06:35:54;101449.09;;;23.96;100.00
72896;BME280;61036;53.224;6.554;2023-07-20T06:38:22;101456.78;;;21.83;100.00
72896;BME280;61036;53.224;6.554;2023-07-20T06:40:49;101455.94;;;23.40;100.00
72896;BME280;61036;53.224;6.554;2023-07-20T06:43:16;101444.06;;;24.00;100.00
72896;BME280;61036;53.224;6.554;2023-07-20T06:45:41;101458.53;;;23.41;100.00
72896;BME280;61036;53.224;6.554;2023-07-20T06:48:07;101460.81;;;22.75;100.00
72896;BME280;61036;53.224;6.554;2023-07-20T06:50:33;101462.56;;;23.08;100.00
72896;BME280;61036;53.224;6.554;2023-07-20T06:52:59;101458.81;;;22.22;100.00
72896;BME280;61036;53.224;6.554;2023-07-20T06:55:25;101458.00;;;23.61;100.00
72896;BME280;61036;53.224;6.554;2023-07-20T06:57:51;101452.81;;;23.66;100.00
72896;BME280;61036;53.224;6.554;2023-07-20T07:00:17;101452.28;;;23.85;100.00
72896;BME280;61036;53.224;6.554;2023-07-20T07:02:43;101458.88;;;22.84;100.00
72896;BME280;61036;53.224;6.554;2023-07-20T07:05:09;101458.50;;;22.56;100.00
72896;BME280;61036;53.224;6.554;2023-07-20T07:07:34;101460.00;;;23.29;100.00
72896;BME280;61036;53.224;6.554;2023-07-20T07:10:00;101468.09;;;23.22;100.00
72896;BME280;61036;53.224;6.554;2023-07-20T07:12:26;101471.41;;;23.18;100.00
72896;BME280;61036;53.224;6.554;2023-07-20T07:14:51;101469.66;;;23.71;100.00
72896;BME280;61036;53.224;6.554;2023-07-20T07:17:17;101472.22;;;22.08;100.00
72896;BME280;61036;53.224;6.554;2023-07-20T07:19:43;101474.50;;;23.23;100.00
72896;BME280;61036;53.224;6.554;2023-07-20T07:22:09;101480.09;;;22.67;100.00
72896;BME280;61036;53.224;6.554;2023-07-20T07:24:35;101479.88;;;22.77;100.00
72896;BME280;61036;53.224;6.554;2023-07-20T07:27:01;101473.69;;;23.37;100.00
72896;BME280;61036;53.224;6.554;2023-07-20T07:29:27;101473.06;;;24.40;97.93
72896;BME280;61036;53.224;6.554;2023-07-20T07:31:53;101470.34;;;23.50;96.24
72896;BME280;61036;53.224;6.554;2023-07-20T07:34:18;101469.25;;;24.12;96.57
72896;BME280;61036;53.224;6.554;2023-07-20T07:36:44;101477.97;;;23.63;97.04
72896;BME280;61036;53.224;6.554;2023-07-20T07:39:10;101481.94;;;23.37;100.00
72896;BME280;61036;53.224;6.554;2023-07-20T07:41:36;101489.34;;;23.14;100.00
72896;BME280;61036;53.224;6.554;2023-07-20T07:44:01;101478.50;;;22.81;100.00
72896;BME280;61036;53.224;6.554;2023-07-20T07:46:27;101487.28;;;22.76;100.00
72896;BME280;61036;53.224;6.554;2023-07-20T07:48:53;101487.00;;;23.48;100.00
72896;BME280;61036;53.224;6.554;2023-07-20T07:51:18;101491.06;;;22.75;100.00
72896;BME280;61036;53.224;6.554;2023-07-20T07:53:45;101491.03;;;24.51;97.81
72896;BME280;61036;53.224;6.554;2023-07-20T07:56:11;101479.22;;;24.72;92.72
72896;BME280;61036;53.224;6.554;2023-07-20T07:58:37;101494.50;;;24.01;92.14
72896;BME280;61036;53.224;6.554;2023-07-20T08:01:03;101491.56;;;24.02;92.28
72896;BME280;61036;53.224;6.554;2023-07-20T08:03:29;101495.63;;;22.99;95.80
72896;BME280;61036;53.224;6.554;2023-07-20T08:05:54;101499.63;;;23.89;92.52
72896;BME280;61036;53.224;6.554;2023-07-20T08:08:31;101500.13;;;25.32;88.10
72896;BME280;61036;53.224;6.554;2023-07-20T08:10:58;101493.34;;;25.78;84.62
72896;BME280;61036;53.224;6.554;2023-07-20T08:13:23;101505.25;;;23.95;89.97
72896;BME280;61036;53.224;6.554;2023-07-20T08:15:50;101498.09;;;23.63;91.65
72896;BME280;61036;53.224;6.554;2023-07-20T08:18:17;101500.44;;;22.97;90.34
72896;BME280;61036;53.224;6.554;2023-07-20T08:20:46;101504.06;;;23.21;91.22
72896;BME280;61036;53.224;6.554;2023-07-20T08:23:12;101494.09;;;24.56;86.35
72896;BME280;61036;53.224;6.554;2023-07-20T08:25:38;101495.25;;;25.13;85.36
72896;BME280;61036;53.224;6.554;2023-07-20T08:28:07;101496.72;;;24.35;85.85
72896;BME280;61036;53.224;6.554;2023-07-20T08:30:59;101489.06;;;25.97;79.66
72896;BME280;61036;53.224;6.554;2023-07-20T08:33:24;101496.50;;;26.59;71.15
72896;BME280;61036;53.224;6.554;2023-07-20T08:35:50;101490.41;;;26.71;68.24
72896;BME280;61036;53.224;6.554;2023-07-20T08:38:16;101495.59;;;28.15;62.61
72896;BME280;61036;53.224;6.554;2023-07-20T08:40:43;101498.03;;;27.17;68.17
72896;BME280;61036;53.224;6.554;2023-07-20T08:43:10;101511.09;;;26.81;65.62
72896;BME280;61036;53.224;6.554;2023-07-20T08:45:39;101510.97;;;27.03;66.37
72896;BME280;61036;53.224;6.554;2023-07-20T08:48:05;101499.47;;;26.99;69.96
72896;BME280;61036;53.224;6.554;2023-07-20T08:50:32;101498.53;;;28.33;65.16
72896;BME280;61036;53.224;6.554;2023-07-20T08:52:59;101496.47;;;27.95;66.36
72896;BME280;61036;53.224;6.554;2023-07-20T08:55:29;101497.09;;;27.97;68.99
72896;BME280;61036;53.224;6.554;2023-07-20T08:57:56;101504.25;;;27.25;59.71
72896;BME280;61036;53.224;6.554;2023-07-20T09:00:23;101504.34;;;26.97;62.31
72896;BME280;61036;53.224;6.554;2023-07-20T09:02:51;101503.28;;;26.98;63.61
72896;BME280;61036;53.224;6.554;2023-07-20T09:05:20;101500.25;;;27.68;61.85
72896;BME280;61036;53.224;6.554;2023-07-20T09:07:46;101501.97;;;28.22;58.80
72896;BME280;61036;53.224;6.554;2023-07-20T09:10:12;101506.06;;;25.94;68.74
72896;BME280;61036;53.224;6.554;2023-07-20T09:12:39;101504.75;;;26.87;64.81
72896;BME280;61036;53.224;6.554;2023-07-20T09:15:06;101500.44;;;26.78;64.45
72896;BME280;61036;53.224;6.554;2023-07-20T09:17:32;101499.78;;;27.38;69.29
72896;BME280;61036;53.224;6.554;2023-07-20T09:19:58;101504.94;;;27.61;59.93
72896;BME280;61036;53.224;6.554;2023-07-20T09:22:30;101500.69;;;27.58;63.01
72896;BME280;61036;53.224;6.554;2023-07-20T09:24:57;101504.53;;;26.48;72.63
72896;BME280;61036;53.224;6.554;2023-07-20T09:27:46;101516.44;;;25.70;76.14
72896;BME280;61036;53.224;6.554;2023-07-20T09:30:15;101511.03;;;26.68;73.93
72896;BME280;61036;53.224;6.554;2023-07-20T09:32:46;101513.63;;;27.38;69.11
72896;BME280;61036;53.224;6.554;2023-07-20T09:35:16;101516.31;;;28.90;60.08
72896;BME280;61036;53.224;6.554;2023-07-20T09:37:50;101508.16;;;29.09;47.67
72896;BME280;61036;53.224;6.554;2023-07-20T09:40:18;101503.69;;;29.08;54.29
72896;BME280;61036;53.224;6.554;2023-07-20T09:42:44;101502.09;;;29.25;45.19
72896;BME280;61036;53.224;6.554;2023-07-20T09:45:10;101504.56;;;29.72;50.40
72896;BME280;61036;53.224;6.554;2023-07-20T09:47:37;101506.22;;;28.24;56.63
72896;BME280;61036;53.224;6.554;2023-07-20T09:50:04;101514.16;;;27.06;66.15
72896;BME280;61036;53.224;6.554;2023-07-20T09:52:30;101522.16;;;27.23;69.72
72896;BME280;61036;53.224;6.554;2023-07-20T09:54:57;101512.16;;;26.45;69.89
72896;BME280;61036;53.224;6.554;2023-07-20T09:57:23;101525.59;;;25.71;74.47
72896;BME280;61036;53.224;6.554;2023-07-20T09:59:48;101521.22;;;26.33;75.97
72896;BME280;61036;53.224;6.554;2023-07-20T10:02:25;101513.59;;;26.70;66.04
72896;BME280;61036;53.224;6.554;2023-07-20T10:04:53;101512.09;;;26.67;65.89
72896;BME280;61036;53.224;6.554;2023-07-20T10:07:19;101506.16;;;27.31;64.12
72896;BME280;61036;53.224;6.554;2023-07-20T10:09:48;101505.03;;;29.69;54.09
72896;BME280;61036;53.224;6.554;2023-07-20T10:12:16;101495.22;;;28.83;55.00
72896;BME280;61036;53.224;6.554;2023-07-20T10:14:47;101507.91;;;28.59;54.79
72896;BME280;61036;53.224;6.554;2023-07-20T10:17:16;101516.22;;;25.29;65.81
72896;BME280;61036;53.224;6.554;2023-07-20T10:19:46;101501.97;;;27.69;61.48
72896;BME280;61036;53.224;6.554;2023-07-20T10:22:15;101494.72;;;28.21;58.58
72896;BME280;61036;53.224;6.554;2023-07-20T10:24:46;101499.19;;;28.55;52.78
72896;BME280;61036;53.224;6.554;2023-07-20T10:27:15;101499.97;;;27.16;58.52
72896;BME280;61036;53.224;6.554;2023-07-20T10:29:41;101507.91;;;26.78;64.26
72896;BME280;61036;53.224;6.554;2023-07-20T10:32:08;101496.06;;;27.98;60.59
72896;BME280;61036;53.224;6.554;2023-07-20T10:34:34;101500.25;;;27.41;60.21
72896;BME280;61036;53.224;6.554;2023-07-20T10:37:00;101503.50;;;28.04;61.27
72896;BME280;61036;53.224;6.554;2023-07-20T10:39:27;101510.63;;;26.36;62.43
72896;BME280;61036;53.224;6.554;2023-07-20T10:42:11;101508.03;;;25.78;64.64
72896;BME280;61036;53.224;6.554;2023-07-20T10:44:40;101505.94;;;26.37;64.07
72896;BME280;61036;53.224;6.554;2023-07-20T10:47:10;101507.81;;;25.80;66.17
72896;BME280;61036;53.224;6.554;2023-07-20T10:49:57;101509.03;;;25.49;71.29
72896;BME280;61036;53.224;6.554;2023-07-20T10:52:23;101511.31;;;25.67;66.74
72896;BME280;61036;53.224;6.554;2023-07-20T10:54:49;101502.94;;;26.04;70.77
72896;BME280;61036;53.224;6.554;2023-07-20T10:57:22;101509.69;;;25.51;72.60
72896;BME280;61036;53.224;6.554;2023-07-20T10:59:48;101504.28;;;26.14;68.66
72896;BME280;61036;53.224;6.554;2023-07-20T11:02:18;101499.91;;;27.03;66.35
72896;BME280;61036;53.224;6.554;2023-07-20T11:04:45;101492.44;;;27.03;59.34
72896;BME280;61036;53.224;6.554;2023-07-20T11:07:35;101501.94;;;27.29;58.63
72896;BME280;61036;53.224;6.554;2023-07-20T11:10:15;101493.25;;;26.90;67.09
72896;BME280;61036;53.224;6.554;2023-07-20T11:12:41;101489.22;;;27.88;58.08
72896;BME280;61036;53.224;6.554;2023-07-20T11:15:06;101496.56;;;27.21;56.11
72896;BME280;61036;53.224;6.554;2023-07-20T11:17:32;101490.44;;;28.25;56.01
72896;BME280;61036;53.224;6.554;2023-07-20T11:19:59;101494.16;;;28.84;51.51
72896;BME280;61036;53.224;6.554;2023-07-20T11:22:30;101498.38;;;28.08;62.54
72896;BME280;61036;53.224;6.554;2023-07-20T11:24:57;101495.78;;;27.67;57.93
72896;BME280;61036;53.224;6.554;2023-07-20T11:27:23;101489.81;;;28.30;56.46
72896;BME280;61036;53.224;6.554;2023-07-20T11:29:49;101492.13;;;28.39;50.49
72896;BME280;61036;53.224;6.554;2023-07-20T11:32:22;101480.31;;;28.77;52.90
72896;BME280;61036;53.224;6.554;2023-07-20T11:34:48;101482.38;;;27.57;56.55
72896;BME280;61036;53.224;6.554;2023-07-20T11:37:14;101483.81;;;27.46;59.85
72896;BME280;61036;53.224;6.554;2023-07-20T11:39:40;101475.16;;;26.95;60.80
72896;BME280;61036;53.224;6.554;2023-07-20T11:42:05;101473.47;;;26.94;62.83
72896;BME280;61036;53.224;6.554;2023-07-20T11:44:32;101483.38;;;27.23;61.29
72896;BME280;61036;53.224;6.554;2023-07-20T11:47:07;101474.72;;;26.84;61.03
72896;BME280;61036;53.224;6.554;2023-07-20T11:49:42;101480.88;;;27.61;56.84
72896;BME280;61036;53.224;6.554;2023-07-20T11:52:13;101474.03;;;28.23;56.47
72896;BME280;61036;53.224;6.554;2023-07-20T11:54:41;101472.97;;;27.65;58.89
72896;BME280;61036;53.224;6.554;2023-07-20T11:57:07;101477.28;;;27.94;59.46
72896;BME280;61036;53.224;6.554;2023-07-20T11:59:53;101473.00;;;28.11;56.46
72896;BME280;61036;53.224;6.554;2023-07-20T12:02:20;101478.50;;;27.38;62.02
72896;BME280;61036;53.224;6.554;2023-07-20T12:04:45;101465.75;;;27.50;58.17
72896;BME280;61036;53.224;6.554;2023-07-20T12:07:12;101472.75;;;26.72;58.92
72896;BME280;61036;53.224;6.554;2023-07-20T12:09:38;101475.34;;;26.86;61.57
72896;BME280;61036;53.224;6.554;2023-07-20T12:12:09;101470.00;;;26.43;62.85
72896;BME280;61036;53.224;6.554;2023-07-20T12:14:37;101475.81;;;26.97;65.83
72896;BME280;61036;53.224;6.554;2023-07-20T12:17:02;101480.50;;;26.96;67.11
72896;BME280;61036;53.224;6.554;2023-07-20T12:19:28;101486.28;;;26.25;66.44
72896;BME280;61036;53.224;6.554;2023-07-20T12:21:57;101474.34;;;26.53;65.31
72896;BME280;61036;53.224;6.554;2023-07-20T12:24:24;101467.72;;;26.95;67.82
72896;BME280;61036;53.224;6.554;2023-07-20T12:26:56;101471.13;;;26.97;65.04
72896;BME280;61036;53.224;6.554;2023-07-20T12:29:23;101467.56;;;26.20;63.81
72896;BME280;61036;53.224;6.554;2023-07-20T12:31:48;101472.09;;;26.35;68.20
72896;BME280;61036;53.224;6.554;2023-07-20T12:34:14;101481.81;;;26.24;66.15
72896;BME280;61036;53.224;6.554;2023-07-20T12:36:40;101480.13;;;25.73;67.22
72896;BME280;61036;53.224;6.554;2023-07-20T12:39:05;101481.38;;;26.55;67.53
72896;BME280;61036;53.224;6.554;2023-07-20T12:41:31;101479.41;;;26.90;69.51
72896;BME280;61036;53.224;6.554;2023-07-20T12:43:56;101478.97;;;26.87;70.99
72896;BME280;61036;53.224;6.554;2023-07-20T12:46:23;101489.41;;;25.08;83.33
72896;BME280;61036;53.224;6.554;2023-07-20T12:48:49;101495.31;;;25.63;91.24
72896;BME280;61036;53.224;6.554;2023-07-20T12:51:15;101487.19;;;26.04;84.91
72896;BME280;61036;53.224;6.554;2023-07-20T12:53:40;101495.59;;;26.17;89.90